Bettina K — PBEW — position and weather

sailwx.info

Track history (hours):
 
Tides and Currents Weather Stations Pressure Air Temp Water Temp Dewpoint Dewpoint Depression Visibility Wind Speed Wind Dir Waves Ship Positions

Bettina K

Last reported at 2014-Jul-25 08:31 UTC. Time now 2014-Jul-25 08:58 UTC.
Position N 47°44' W 003°21'.

Length 88 m; draft 4.3 m.

Type: Cargo ship. MMSI: 246193000.

Date/timePositionNaut miles runAvg speedWind from/ knotsBaromVisibWave heightAir tempDewpointWater temp
2014-Jul-25 08:31N 47°44' W 003°21'0 0.0
2014-Jul-25 07:31N 47°44' W 003°21'0 0.0
2014-Jul-25 06:31N 47°44' W 003°21'0 0.0
2014-Jul-25 05:31N 47°44' W 003°21'0 0.0
2014-Jul-25 04:31N 47°44' W 003°21'0 0.0
2014-Jul-25 03:31N 47°44' W 003°21'0 0.0
2014-Jul-25 02:31N 47°44' W 003°21'0 0.0
2014-Jul-25 01:31N 47°44' W 003°21'0 0.0
2014-Jul-25 00:31N 47°44' W 003°21'0 0.0
2014-Jul-24 23:31N 47°44' W 003°21'0 0.0
2014-Jul-24 22:31N 47°44' W 003°21'0 0.0
2014-Jul-24 21:31N 47°44' W 003°21'0 0.0
2014-Jul-24 20:31N 47°44' W 003°21'0 0.0
2014-Jul-24 19:31N 47°44' W 003°21'0 0.0
2014-Jul-24 18:31N 47°44' W 003°21'4 4.2
2014-Jul-24 17:33N 47°41' W 003°25'10 9.7
2014-Jul-24 16:33N 47°39' W 003°39'1010.4
2014-Jul-24 15:33N 47°36' W 003°54'4110.3
2014-Jul-24 11:33N 47°53' W 004°50'9 9.0
2014-Jul-24 10:33N 47°57' W 005°02'20 9.9
2014-Jul-24 08:30N 48°11' W 005°24'215 5.5
2014-Jul-22 17:07N 50°24' W 001°05'4 7.7
2014-Jul-22 16:32N 50°25' W 000°58'9 8.3
2014-Jul-22 15:27N 50°27' W 000°45'9 9.7
2014-Jul-22 14:33N 50°29' W 000°31'1110.5
2014-Jul-22 13:31N 50°31' W 000°14'1111.2
2014-Jul-22 12:30N 50°33' E 000°03'1111.8
2014-Jul-22 11:33N 50°36' E 000°20'1111.5
2014-Jul-22 10:33N 50°40' E 000°37'1110.9
2014-Jul-22 09:33N 50°47' E 000°51'21 9.7
2014-Jul-22 07:26N 50°59' E 001°17'8 9.6
2014-Jul-22 06:33N 51°04' E 001°28'1111.3
2014-Jul-22 05:33N 51°12' E 001°41'1211.7
2014-Jul-22 04:33N 51°21' E 001°52'1212.1
2014-Jul-22 03:34N 51°31' E 002°02'1111.5
2014-Jul-22 02:33N 51°40' E 002°14'1110.8
2014-Jul-22 01:31N 51°49' E 002°26'14 9.9
2014-Jul-22 00:08N 51°56' E 002°44'36 9.0
2014-Jul-21 20:11N 52°03' E 003°41'710.0
2014-Jul-21 19:32N 52°03' E 003°52'9 9.2
2014-Jul-21 18:33N 51°59' E 004°05'1111.0
2014-Jul-21 17:33N 51°53' E 004°20'10 9.5
2014-Jul-21 16:33N 51°49' E 004°34'7 7.2
2014-Jul-21 15:32N 51°42' E 004°35'0 0.0
2014-Jul-21 09:27N 51°42' E 004°35'0 0.0
2014-Jul-21 07:33N 51°42' E 004°35'0 0.0
2014-Jul-21 06:24N 51°42' E 004°35'0 0.0
2014-Jul-21 05:27N 51°42' E 004°35'0 0.0
2014-Jul-21 04:33N 51°42' E 004°35'0 0.0
2014-Jul-21 03:33N 51°42' E 004°35'0 0.0
2014-Jul-21 02:33N 51°42' E 004°35'0 0.0
2014-Jul-21 01:33N 51°42' E 004°35'0 0.0
2014-Jul-21 00:27N 51°42' E 004°35'0 0.0
2014-Jul-20 23:33N 51°42' E 004°35'0 0.0
2014-Jul-20 22:30N 51°42' E 004°35'0 0.0
2014-Jul-20 21:33N 51°42' E 004°35'0 0.0
2014-Jul-20 20:24N 51°42' E 004°35'0 0.0
2014-Jul-20 19:33N 51°42' E 004°35'0 0.0
2014-Jul-20 18:30N 51°42' E 004°35'0 0.0
2014-Jul-20 17:33N 51°42' E 004°35'0 0.0
2014-Jul-20 16:30N 51°42' E 004°35'0 0.0
2014-Jul-20 15:30N 51°42' E 004°35'0 0.0
2014-Jul-20 14:33N 51°42' E 004°35'0 0.0
2014-Jul-20 13:33N 51°42' E 004°35'0 0.0
2014-Jul-20 12:33N 51°42' E 004°35'0 0.0
2014-Jul-20 11:24N 51°42' E 004°35'0 0.0
2014-Jul-20 10:27N 51°42' E 004°35'0 0.0
2014-Jul-20 09:33N 51°42' E 004°35'0 0.0
2014-Jul-20 08:33N 51°42' E 004°35'0 0.0
2014-Jul-20 07:30N 51°42' E 004°35'0 0.0
2014-Jul-20 06:27N 51°42' E 004°35'0 0.0
2014-Jul-20 05:33N 51°42' E 004°35'0 0.0
2014-Jul-20 04:33N 51°42' E 004°35'0 0.0
2014-Jul-20 03:24N 51°42' E 004°35'0 0.0
2014-Jul-20 02:33N 51°42' E 004°35'0 0.0
2014-Jul-20 01:33N 51°42' E 004°35'0 0.0
2014-Jul-20 00:33N 51°42' E 004°35'0 0.0
2014-Jul-19 23:27N 51°42' E 004°35'0 0.0
2014-Jul-19 22:26N 51°42' E 004°35'0 0.0
2014-Jul-19 21:32N 51°42' E 004°35'0 0.0
2014-Jul-19 20:29N 51°42' E 004°35'0 0.0
2014-Jul-19 19:29N 51°42' E 004°35'0 0.0
2014-Jul-19 18:32N 51°42' E 004°35'0 0.0
2014-Jul-19 17:32N 51°42' E 004°35'0 0.0
2014-Jul-19 16:23N 51°42' E 004°35'0 0.0
2014-Jul-19 15:32N 51°42' E 004°35'0 0.0
2014-Jul-19 14:26N 51°42' E 004°35'0 0.0
2014-Jul-19 13:32N 51°42' E 004°35'0 0.0
2014-Jul-19 12:30N 51°42' E 004°35'0 0.0
2014-Jul-19 11:30N 51°42' E 004°35'0 0.0
2014-Jul-19 10:30N 51°42' E 004°35'0 0.0
2014-Jul-19 09:24N 51°42' E 004°35'0 0.0
2014-Jul-19 08:27N 51°42' E 004°35'1 1.5
2014-Jul-19 07:33N 51°42' E 004°37'8 7.8
2014-Jul-19 06:34N 51°50' E 004°33'8 8.1
2014-Jul-19 05:33N 51°52' E 004°20'8 7.8
2014-Jul-19 04:33N 51°57' E 004°11'8 7.6
2014-Jul-19 03:33N 51°60' E 003°59'8 8.0
2014-Jul-19 02:33N 51°59' E 003°46'8 7.7
2014-Jul-19 01:33N 51°57' E 003°35'8 7.7
2014-Jul-19 00:33N 51°54' E 003°23'9 8.5
2014-Jul-18 23:32N 51°52' E 003°09'28 9.2
2014-Jul-18 20:33N 51°39' E 002°30'1010.4
2014-Jul-18 19:33N 51°31' E 002°19'1111.0
2014-Jul-18 18:33N 51°22' E 002°09'1111.1
2014-Jul-18 17:33N 51°13' E 001°60'1212.0
2014-Jul-18 16:33N 51°05' E 001°45'1212.3
2014-Jul-18 15:33N 50°56' E 001°32'1110.8
2014-Jul-18 14:33N 50°46' E 001°24'10 9.9
2014-Jul-18 13:33N 50°38' E 001°16'1010.0
2014-Jul-18 12:33N 50°31' E 001°04'10 9.9
2014-Jul-18 11:33N 50°27' E 000°50'12 9.6
2014-Jul-18 10:17N 50°24' E 000°32'25 8.3
2014-Jul-18 07:15N 50°17' W 000°07'32 7.7
2014-Jul-18 03:08N 50°09' W 000°55'240 8.9
2014-Jul-17 00:04N 48°03' W 006°07'  
Track history (hours):
 
Tides and Currents Weather Stations Pressure Air Temp Water Temp Dewpoint Dewpoint Depression Visibility Wind Speed Wind Dir Waves Ship Positions

Bettina K

Last reported at 2014-Jul-25 08:31 UTC. Time now 2014-Jul-25 08:58 UTC.
Position N 47°44' W 003°21'.

Length 88 m; draft 4.3 m.

Type: Cargo ship. MMSI: 246193000.

Date/timePositionNaut miles runAvg speedWind from/ knotsBaromVisibWave heightAir tempDewpointWater temp
2014-Jul-25 08:31N 47°44' W 003°21'0 0.0
2014-Jul-25 07:31N 47°44' W 003°21'0 0.0
2014-Jul-25 06:31N 47°44' W 003°21'0 0.0
2014-Jul-25 05:31N 47°44' W 003°21'0 0.0
2014-Jul-25 04:31N 47°44' W 003°21'0 0.0
2014-Jul-25 03:31N 47°44' W 003°21'0 0.0
2014-Jul-25 02:31N 47°44' W 003°21'0 0.0
2014-Jul-25 01:31N 47°44' W 003°21'0 0.0
2014-Jul-25 00:31N 47°44' W 003°21'0 0.0
2014-Jul-24 23:31N 47°44' W 003°21'0 0.0
2014-Jul-24 22:31N 47°44' W 003°21'0 0.0
2014-Jul-24 21:31N 47°44' W 003°21'0 0.0
2014-Jul-24 20:31N 47°44' W 003°21'0 0.0
2014-Jul-24 19:31N 47°44' W 003°21'0 0.0
2014-Jul-24 18:31N 47°44' W 003°21'4 4.2
2014-Jul-24 17:33N 47°41' W 003°25'10 9.7
2014-Jul-24 16:33N 47°39' W 003°39'1010.4
2014-Jul-24 15:33N 47°36' W 003°54'4110.3
2014-Jul-24 11:33N 47°53' W 004°50'9 9.0
2014-Jul-24 10:33N 47°57' W 005°02'20 9.9
2014-Jul-24 08:30N 48°11' W 005°24'215 5.5
2014-Jul-22 17:07N 50°24' W 001°05'4 7.7
2014-Jul-22 16:32N 50°25' W 000°58'9 8.3
2014-Jul-22 15:27N 50°27' W 000°45'9 9.7
2014-Jul-22 14:33N 50°29' W 000°31'1110.5
2014-Jul-22 13:31N 50°31' W 000°14'1111.2
2014-Jul-22 12:30N 50°33' E 000°03'1111.8
2014-Jul-22 11:33N 50°36' E 000°20'1111.5
2014-Jul-22 10:33N 50°40' E 000°37'1110.9
2014-Jul-22 09:33N 50°47' E 000°51'21 9.7
2014-Jul-22 07:26N 50°59' E 001°17'8 9.6
2014-Jul-22 06:33N 51°04' E 001°28'1111.3
2014-Jul-22 05:33N 51°12' E 001°41'1211.7
2014-Jul-22 04:33N 51°21' E 001°52'1212.1
2014-Jul-22 03:34N 51°31' E 002°02'1111.5
2014-Jul-22 02:33N 51°40' E 002°14'1110.8
2014-Jul-22 01:31N 51°49' E 002°26'14 9.9
2014-Jul-22 00:08N 51°56' E 002°44'36 9.0
2014-Jul-21 20:11N 52°03' E 003°41'710.0
2014-Jul-21 19:32N 52°03' E 003°52'9 9.2
2014-Jul-21 18:33N 51°59' E 004°05'1111.0
2014-Jul-21 17:33N 51°53' E 004°20'10 9.5
2014-Jul-21 16:33N 51°49' E 004°34'7 7.2
2014-Jul-21 15:32N 51°42' E 004°35'0 0.0
2014-Jul-21 09:27N 51°42' E 004°35'0 0.0
2014-Jul-21 07:33N 51°42' E 004°35'0 0.0
2014-Jul-21 06:24N 51°42' E 004°35'0 0.0
2014-Jul-21 05:27N 51°42' E 004°35'0 0.0
2014-Jul-21 04:33N 51°42' E 004°35'0 0.0
2014-Jul-21 03:33N 51°42' E 004°35'0 0.0
2014-Jul-21 02:33N 51°42' E 004°35'0 0.0
2014-Jul-21 01:33N 51°42' E 004°35'0 0.0
2014-Jul-21 00:27N 51°42' E 004°35'0 0.0
2014-Jul-20 23:33N 51°42' E 004°35'0 0.0
2014-Jul-20 22:30N 51°42' E 004°35'0 0.0
2014-Jul-20 21:33N 51°42' E 004°35'0 0.0
2014-Jul-20 20:24N 51°42' E 004°35'0 0.0
2014-Jul-20 19:33N 51°42' E 004°35'0 0.0
2014-Jul-20 18:30N 51°42' E 004°35'0 0.0
2014-Jul-20 17:33N 51°42' E 004°35'0 0.0
2014-Jul-20 16:30N 51°42' E 004°35'0 0.0
2014-Jul-20 15:30N 51°42' E 004°35'0 0.0
2014-Jul-20 14:33N 51°42' E 004°35'0 0.0
2014-Jul-20 13:33N 51°42' E 004°35'0 0.0
2014-Jul-20 12:33N 51°42' E 004°35'0 0.0
2014-Jul-20 11:24N 51°42' E 004°35'0 0.0
2014-Jul-20 10:27N 51°42' E 004°35'0 0.0
2014-Jul-20 09:33N 51°42' E 004°35'0 0.0
2014-Jul-20 08:33N 51°42' E 004°35'0 0.0
2014-Jul-20 07:30N 51°42' E 004°35'0 0.0
2014-Jul-20 06:27N 51°42' E 004°35'0 0.0
2014-Jul-20 05:33N 51°42' E 004°35'0 0.0
2014-Jul-20 04:33N 51°42' E 004°35'0 0.0
2014-Jul-20 03:24N 51°42' E 004°35'0 0.0
2014-Jul-20 02:33N 51°42' E 004°35'0 0.0
2014-Jul-20 01:33N 51°42' E 004°35'0 0.0
2014-Jul-20 00:33N 51°42' E 004°35'0 0.0
2014-Jul-19 23:27N 51°42' E 004°35'0 0.0
2014-Jul-19 22:26N 51°42' E 004°35'0 0.0
2014-Jul-19 21:32N 51°42' E 004°35'0 0.0
2014-Jul-19 20:29N 51°42' E 004°35'0 0.0
2014-Jul-19 19:29N 51°42' E 004°35'0 0.0
2014-Jul-19 18:32N 51°42' E 004°35'0 0.0
2014-Jul-19 17:32N 51°42' E 004°35'0 0.0
2014-Jul-19 16:23N 51°42' E 004°35'0 0.0
2014-Jul-19 15:32N 51°42' E 004°35'0 0.0
2014-Jul-19 14:26N 51°42' E 004°35'0 0.0
2014-Jul-19 13:32N 51°42' E 004°35'0 0.0
2014-Jul-19 12:30N 51°42' E 004°35'0 0.0
2014-Jul-19 11:30N 51°42' E 004°35'0 0.0
2014-Jul-19 10:30N 51°42' E 004°35'0 0.0
2014-Jul-19 09:24N 51°42' E 004°35'0 0.0
2014-Jul-19 08:27N 51°42' E 004°35'1 1.5
2014-Jul-19 07:33N 51°42' E 004°37'8 7.8
2014-Jul-19 06:34N 51°50' E 004°33'8 8.1
2014-Jul-19 05:33N 51°52' E 004°20'8 7.8
2014-Jul-19 04:33N 51°57' E 004°11'8 7.6
2014-Jul-19 03:33N 51°60' E 003°59'8 8.0
2014-Jul-19 02:33N 51°59' E 003°46'8 7.7
2014-Jul-19 01:33N 51°57' E 003°35'8 7.7
2014-Jul-19 00:33N 51°54' E 003°23'9 8.5
2014-Jul-18 23:32N 51°52' E 003°09'28 9.2
2014-Jul-18 20:33N 51°39' E 002°30'1010.4
2014-Jul-18 19:33N 51°31' E 002°19'1111.0
2014-Jul-18 18:33N 51°22' E 002°09'1111.1
2014-Jul-18 17:33N 51°13' E 001°60'1212.0
2014-Jul-18 16:33N 51°05' E 001°45'1212.3
2014-Jul-18 15:33N 50°56' E 001°32'1110.8
2014-Jul-18 14:33N 50°46' E 001°24'10 9.9
2014-Jul-18 13:33N 50°38' E 001°16'1010.0
2014-Jul-18 12:33N 50°31' E 001°04'10 9.9
2014-Jul-18 11:33N 50°27' E 000°50'12 9.6
2014-Jul-18 10:17N 50°24' E 000°32'25 8.3
2014-Jul-18 07:15N 50°17' W 000°07'32 7.7
2014-Jul-18 03:08N 50°09' W 000°55'240 8.9
2014-Jul-17 00:04N 48°03' W 006°07'  

Dump ship's entire track history